sensor_id;sensor_type;location;lat;lon;timestamp;pressure;altitude;pressure_sealevel;temperature;humidity
20455;BME280;10386;54.314;10.022;2023-08-01T00:01:00;97631.03;;;16.93;100.00
20455;BME280;10386;54.314;10.022;2023-08-01T00:03:27;97637.25;;;16.82;100.00
20455;BME280;10386;54.314;10.022;2023-08-01T00:05:54;97621.13;;;16.74;100.00
20455;BME280;10386;54.314;10.022;2023-08-01T00:08:21;97592.19;;;16.78;100.00
20455;BME280;10386;54.314;10.022;2023-08-01T00:10:48;97564.75;;;16.84;100.00
20455;BME280;10386;54.314;10.022;2023-08-01T00:13:15;97573.72;;;16.73;100.00
20455;BME280;10386;54.314;10.022;2023-08-01T00:15:42;97556.06;;;16.69;100.00
20455;BME280;10386;54.314;10.022;2023-08-01T00:18:26;97549.13;;;16.67;100.00
20455;BME280;10386;54.314;10.022;2023-08-01T00:20:53;97538.47;;;16.77;100.00
20455;BME280;10386;54.314;10.022;2023-08-01T00:23:20;97526.91;;;16.75;100.00
20455;BME280;10386;54.314;10.022;2023-08-01T00:25:47;97521.88;;;16.72;100.00
20455;BME280;10386;54.314;10.022;2023-08-01T00:28:18;97496.78;;;16.75;100.00
20455;BME280;10386;54.314;10.022;2023-08-01T00:30:45;97486.06;;;16.73;100.00
20455;BME280;10386;54.314;10.022;2023-08-01T00:33:12;97492.47;;;16.67;100.00
20455;BME280;10386;54.314;10.022;2023-08-01T00:35:39;97490.03;;;16.60;100.00
20455;BME280;10386;54.314;10.022;2023-08-01T00:38:06;97477.75;;;16.62;100.00
20455;BME280;10386;54.314;10.022;2023-08-01T00:40:34;97462.53;;;16.66;100.00
20455;BME280;10386;54.314;10.022;2023-08-01T00:43:00;97441.03;;;16.69;100.00
20455;BME280;10386;54.314;10.022;2023-08-01T00:45:28;97434.78;;;16.63;100.00
20455;BME280;10386;54.314;10.022;2023-08-01T00:47:56;97426.72;;;16.67;100.00
20455;BME280;10386;54.314;10.022;2023-08-01T00:50:24;97427.47;;;16.57;100.00
20455;BME280;10386;54.314;10.022;2023-08-01T00:52:52;97419.34;;;16.50;100.00
20455;BME280;10386;54.314;10.022;2023-08-01T00:55:19;97416.47;;;16.45;100.00
20455;BME280;10386;54.314;10.022;2023-08-01T00:57:47;97388.69;;;16.60;100.00
20455;BME280;10386;54.314;10.022;2023-08-01T01:00:14;97382.59;;;16.58;100.00
20455;BME280;10386;54.314;10.022;2023-08-01T01:02:41;97377.53;;;16.43;100.00
20455;BME280;10386;54.314;10.022;2023-08-01T01:05:08;97382.75;;;16.45;100.00
20455;BME280;10386;54.314;10.022;2023-08-01T01:07:36;97374.19;;;16.41;100.00
20455;BME280;10386;54.314;10.022;2023-08-01T01:10:03;97366.19;;;16.40;100.00
20455;BME280;10386;54.314;10.022;2023-08-01T01:12:30;97363.69;;;16.38;100.00
20455;BME280;10386;54.314;10.022;2023-08-01T01:14:57;97353.50;;;16.45;100.00
20455;BME280;10386;54.314;10.022;2023-08-01T01:17:23;97356.81;;;16.29;100.00
20455;BME280;10386;54.314;10.022;2023-08-01T01:19:50;97350.88;;;16.32;100.00
20455;BME280;10386;54.314;10.022;2023-08-01T01:22:18;97359.88;;;16.21;100.00
20455;BME280;10386;54.314;10.022;2023-08-01T01:24:45;97353.53;;;16.21;100.00
20455;BME280;10386;54.314;10.022;2023-08-01T01:27:13;97345.88;;;16.29;100.00
20455;BME280;10386;54.314;10.022;2023-08-01T01:29:42;97346.25;;;16.33;100.00
20455;BME280;10386;54.314;10.022;2023-08-01T01:32:10;97351.34;;;16.29;100.00
20455;BME280;10386;54.314;10.022;2023-08-01T01:34:37;97337.00;;;16.34;100.00
20455;BME280;10386;54.314;10.022;2023-08-01T01:37:04;97333.13;;;16.41;100.00
20455;BME280;10386;54.314;10.022;2023-08-01T01:39:31;97333.13;;;16.41;100.00
20455;BME280;10386;54.314;10.022;2023-08-01T01:41:57;97333.13;;;16.41;100.00
20455;BME280;10386;54.314;10.022;2023-08-01T01:44:24;97323.38;;;16.45;100.00
20455;BME280;10386;54.314;10.022;2023-08-01T01:46:51;97314.00;;;16.53;100.00
20455;BME280;10386;54.314;10.022;2023-08-01T01:49:18;97305.63;;;16.48;100.00
20455;BME280;10386;54.314;10.022;2023-08-01T01:51:44;97307.69;;;16.52;100.00
20455;BME280;10386;54.314;10.022;2023-08-01T01:54:11;97295.63;;;16.71;100.00
20455;BME280;10386;54.314;10.022;2023-08-01T01:56:38;97290.94;;;16.60;100.00
20455;BME280;10386;54.314;10.022;2023-08-01T01:59:05;97291.25;;;16.52;100.00
20455;BME280;10386;54.314;10.022;2023-08-01T02:01:32;97286.38;;;16.54;100.00
20455;BME280;10386;54.314;10.022;2023-08-01T02:03:58;97272.38;;;16.62;100.00
20455;BME280;10386;54.314;10.022;2023-08-01T02:06:25;97274.31;;;16.73;100.00
20455;BME280;10386;54.314;10.022;2023-08-01T02:08:52;97264.41;;;16.72;100.00
20455;BME280;10386;54.314;10.022;2023-08-01T02:11:19;97260.75;;;16.78;100.00
20455;BME280;10386;54.314;10.022;2023-08-01T02:13:45;97257.53;;;16.69;100.00
20455;BME280;10386;54.314;10.022;2023-08-01T02:16:12;97265.22;;;16.61;100.00
20455;BME280;10386;54.314;10.022;2023-08-01T02:18:39;97261.19;;;16.64;100.00
20455;BME280;10386;54.314;10.022;2023-08-01T02:21:06;97264.75;;;16.64;100.00
20455;BME280;10386;54.314;10.022;2023-08-01T02:23:32;97249.63;;;16.62;100.00
20455;BME280;10386;54.314;10.022;2023-08-01T02:26:03;97252.59;;;16.60;100.00
20455;BME280;10386;54.314;10.022;2023-08-01T02:28:29;97244.63;;;16.59;100.00
20455;BME280;10386;54.314;10.022;2023-08-01T02:30:56;97243.91;;;16.63;100.00
20455;BME280;10386;54.314;10.022;2023-08-01T02:33:23;97231.75;;;16.59;100.00
20455;BME280;10386;54.314;10.022;2023-08-01T02:35:50;97232.63;;;16.71;100.00
20455;BME280;10386;54.314;10.022;2023-08-01T02:38:17;97226.28;;;16.59;100.00
20455;BME280;10386;54.314;10.022;2023-08-01T02:40:43;97209.28;;;16.68;100.00
20455;BME280;10386;54.314;10.022;2023-08-01T02:43:10;97209.38;;;16.62;100.00
20455;BME280;10386;54.314;10.022;2023-08-01T02:45:37;97200.69;;;16.65;100.00
20455;BME280;10386;54.314;10.022;2023-08-01T02:48:03;97198.97;;;16.53;100.00
20455;BME280;10386;54.314;10.022;2023-08-01T02:50:30;97210.16;;;16.40;100.00
20455;BME280;10386;54.314;10.022;2023-08-01T02:52:57;97212.53;;;16.36;100.00
20455;BME280;10386;54.314;10.022;2023-08-01T02:55:24;97205.75;;;16.39;100.00
20455;BME280;10386;54.314;10.022;2023-08-01T02:57:50;97214.13;;;16.26;100.00
20455;BME280;10386;54.314;10.022;2023-08-01T03:00:17;97210.09;;;16.28;100.00
20455;BME280;10386;54.314;10.022;2023-08-01T03:02:45;97215.13;;;16.13;100.00
20455;BME280;10386;54.314;10.022;2023-08-01T03:05:12;97226.91;;;16.14;100.00
20455;BME280;10386;54.314;10.022;2023-08-01T03:07:39;97223.19;;;16.08;100.00
20455;BME280;10386;54.314;10.022;2023-08-01T03:10:06;97224.31;;;16.19;100.00
20455;BME280;10386;54.314;10.022;2023-08-01T03:12:34;97208.28;;;16.22;100.00
20455;BME280;10386;54.314;10.022;2023-08-01T03:15:01;97204.63;;;16.28;100.00
20455;BME280;10386;54.314;10.022;2023-08-01T03:17:28;97202.47;;;16.30;100.00
20455;BME280;10386;54.314;10.022;2023-08-01T03:19:54;97212.75;;;16.35;100.00
20455;BME280;10386;54.314;10.022;2023-08-01T03:22:21;97201.13;;;16.21;100.00
20455;BME280;10386;54.314;10.022;2023-08-01T03:24:48;97208.28;;;16.22;100.00
20455;BME280;10386;54.314;10.022;2023-08-01T03:27:15;97215.91;;;16.20;100.00
20455;BME280;10386;54.314;10.022;2023-08-01T03:29:41;97216.09;;;16.19;100.00
20455;BME280;10386;54.314;10.022;2023-08-01T03:32:08;97226.38;;;16.23;100.00
20455;BME280;10386;54.314;10.022;2023-08-01T03:34:35;97222.44;;;16.19;100.00
20455;BME280;10386;54.314;10.022;2023-08-01T03:37:02;97210.16;;;16.22;100.00
20455;BME280;10386;54.314;10.022;2023-08-01T03:39:30;97203.28;;;16.19;100.00
20455;BME280;10386;54.314;10.022;2023-08-01T03:41:57;97190.47;;;16.31;100.00
20455;BME280;10386;54.314;10.022;2023-08-01T03:44:23;97184.72;;;16.21;100.00
20455;BME280;10386;54.314;10.022;2023-08-01T03:46:50;97174.00;;;16.20;100.00
20455;BME280;10386;54.314;10.022;2023-08-01T03:49:17;97187.06;;;16.18;100.00
20455;BME280;10386;54.314;10.022;2023-08-01T03:51:44;97186.25;;;16.17;100.00
20455;BME280;10386;54.314;10.022;2023-08-01T03:54:11;97161.13;;;16.38;100.00
20455;BME280;10386;54.314;10.022;2023-08-01T03:56:40;97157.50;;;16.26;100.00
20455;BME280;10386;54.314;10.022;2023-08-01T03:59:15;97142.44;;;16.47;100.00
20455;BME280;10386;54.314;10.022;2023-08-01T04:01:42;97142.25;;;16.30;100.00
20455;BME280;10386;54.314;10.022;2023-08-01T04:04:09;97140.75;;;16.34;100.00
20455;BME280;10386;54.314;10.022;2023-08-01T04:06:36;97147.06;;;16.35;100.00
20455;BME280;10386;54.314;10.022;2023-08-01T04:09:04;97144.56;;;16.33;100.00
20455;BME280;10386;54.314;10.022;2023-08-01T04:11:33;97141.66;;;16.28;100.00
20455;BME280;10386;54.314;10.022;2023-08-01T04:14:00;97132.69;;;16.39;100.00
20455;BME280;10386;54.314;10.022;2023-08-01T04:16:26;97135.72;;;16.31;100.00
20455;BME280;10386;54.314;10.022;2023-08-01T04:18:53;97138.09;;;16.28;100.00
20455;BME280;10386;54.314;10.022;2023-08-01T04:21:20;97129.53;;;16.24;100.00
20455;BME280;10386;54.314;10.022;2023-08-01T04:23:46;97130.72;;;16.28;100.00
20455;BME280;10386;54.314;10.022;2023-08-01T04:26:13;97132.84;;;16.26;100.00
20455;BME280;10386;54.314;10.022;2023-08-01T04:28:40;97124.66;;;16.26;100.00
20455;BME280;10386;54.314;10.022;2023-08-01T04:31:07;97120.72;;;16.22;100.00
20455;BME280;10386;54.314;10.022;2023-08-01T04:33:33;97129.75;;;16.23;100.00
20455;BME280;10386;54.314;10.022;2023-08-01T04:36:00;97133.31;;;16.23;100.00
20455;BME280;10386;54.314;10.022;2023-08-01T04:38:28;97128.91;;;16.22;100.00
20455;BME280;10386;54.314;10.022;2023-08-01T04:40:55;97127.25;;;16.33;100.00
20455;BME280;10386;54.314;10.022;2023-08-01T04:43:21;97120.72;;;16.22;100.00
20455;BME280;10386;54.314;10.022;2023-08-01T04:45:59;97119.31;;;16.31;100.00
20455;BME280;10386;54.314;10.022;2023-08-01T04:48:54;97117.78;;;16.35;100.00
20455;BME280;10386;54.314;10.022;2023-08-01T04:51:21;97115.78;;;16.42;100.00
20455;BME280;10386;54.314;10.022;2023-08-01T04:53:48;97120.38;;;16.30;100.00
20455;BME280;10386;54.314;10.022;2023-08-01T04:56:15;97125.75;;;16.37;100.00
20455;BME280;10386;54.314;10.022;2023-08-01T04:58:41;97126.94;;;16.41;100.00
20455;BME280;10386;54.314;10.022;2023-08-01T05:01:08;97133.63;;;16.33;100.00
20455;BME280;10386;54.314;10.022;2023-08-01T05:03:35;97137.88;;;16.29;100.00
20455;BME280;10386;54.314;10.022;2023-08-01T05:06:05;97123.41;;;16.52;100.00
20455;BME280;10386;54.314;10.022;2023-08-01T05:08:33;97122.66;;;16.45;100.00
20455;BME280;10386;54.314;10.022;2023-08-01T05:11:00;97122.19;;;16.36;100.00
20455;BME280;10386;54.314;10.022;2023-08-01T05:13:26;97141.28;;;16.25;100.00
20455;BME280;10386;54.314;10.022;2023-08-01T05:15:53;97150.63;;;16.06;100.00
20455;BME280;10386;54.314;10.022;2023-08-01T05:18:20;97150.81;;;15.93;100.00
20455;BME280;10386;54.314;10.022;2023-08-01T05:20:46;97159.84;;;15.93;100.00
20455;BME280;10386;54.314;10.022;2023-08-01T05:23:13;97162.91;;;15.85;100.00
20455;BME280;10386;54.314;10.022;2023-08-01T05:25:40;97180.84;;;15.81;100.00
20455;BME280;10386;54.314;10.022;2023-08-01T05:28:07;97170.00;;;15.75;100.00
20455;BME280;10386;54.314;10.022;2023-08-01T05:30:34;97170.97;;;15.80;100.00
20455;BME280;10386;54.314;10.022;2023-08-01T05:33:01;97183.59;;;15.81;100.00
20455;BME280;10386;54.314;10.022;2023-08-01T05:35:27;97186.69;;;15.85;100.00
20455;BME280;10386;54.314;10.022;2023-08-01T05:37:54;97191.94;;;15.86;100.00
20455;BME280;10386;54.314;10.022;2023-08-01T05:40:21;97197.06;;;15.94;100.00
20455;BME280;10386;54.314;10.022;2023-08-01T05:42:48;97180.91;;;15.93;100.00
20455;BME280;10386;54.314;10.022;2023-08-01T05:45:15;97180.06;;;15.92;100.00
20455;BME280;10386;54.314;10.022;2023-08-01T05:47:41;97180.66;;;15.94;100.00
20455;BME280;10386;54.314;10.022;2023-08-01T05:50:09;97188.41;;;15.97;100.00
20455;BME280;10386;54.314;10.022;2023-08-01T05:52:35;97191.38;;;15.96;100.00
20455;BME280;10386;54.314;10.022;2023-08-01T05:55:02;97174.72;;;15.97;100.00
20455;BME280;10386;54.314;10.022;2023-08-01T05:57:29;97177.31;;;15.92;100.00
20455;BME280;10386;54.314;10.022;2023-08-01T05:59:56;97173.53;;;15.93;100.00
20455;BME280;10386;54.314;10.022;2023-08-01T06:02:23;97178.53;;;15.96;100.00
20455;BME280;10386;54.314;10.022;2023-08-01T06:04:50;97187.72;;;16.02;100.00
20455;BME280;10386;54.314;10.022;2023-08-01T06:07:17;97187.75;;;16.13;100.00
20455;BME280;10386;54.314;10.022;2023-08-01T06:09:50;97176.88;;;16.25;100.00
20455;BME280;10386;54.314;10.022;2023-08-01T06:12:18;97168.00;;;16.11;100.00
20455;BME280;10386;54.314;10.022;2023-08-01T06:14:46;97189.78;;;15.88;100.00
20455;BME280;10386;54.314;10.022;2023-08-01T06:17:12;97190.13;;;15.80;100.00
20455;BME280;10386;54.314;10.022;2023-08-01T06:19:39;97191.03;;;15.74;100.00
20455;BME280;10386;54.314;10.022;2023-08-01T06:22:06;97196.34;;;15.69;100.00
20455;BME280;10386;54.314;10.022;2023-08-01T06:24:33;97201.22;;;15.67;100.00
20455;BME280;10386;54.314;10.022;2023-08-01T06:27:00;97208.50;;;15.73;100.00
20455;BME280;10386;54.314;10.022;2023-08-01T06:29:26;97210.38;;;15.73;100.00
20455;BME280;10386;54.314;10.022;2023-08-01T06:31:53;97218.84;;;15.71;100.00
20455;BME280;10386;54.314;10.022;2023-08-01T06:34:20;97215.66;;;15.74;100.00
20455;BME280;10386;54.314;10.022;2023-08-01T06:36:47;97220.59;;;15.84;100.00
20455;BME280;10386;54.314;10.022;2023-08-01T06:39:14;97218.00;;;15.89;100.00
20455;BME280;10386;54.314;10.022;2023-08-01T06:41:41;97208.63;;;15.96;100.00
20455;BME280;10386;54.314;10.022;2023-08-01T06:44:08;97215.69;;;16.04;100.00
20455;BME280;10386;54.314;10.022;2023-08-01T06:46:34;97215.69;;;16.04;100.00
20455;BME280;10386;54.314;10.022;2023-08-01T06:49:02;97211.31;;;16.14;100.00
20455;BME280;10386;54.314;10.022;2023-08-01T06:51:28;97212.25;;;16.08;100.00
20455;BME280;10386;54.314;10.022;2023-08-01T06:53:55;97217.69;;;16.26;100.00
20455;BME280;10386;54.314;10.022;2023-08-01T06:56:22;97217.44;;;16.16;100.00
20455;BME280;10386;54.314;10.022;2023-08-01T06:58:49;97210.13;;;16.10;100.00
20455;BME280;10386;54.314;10.022;2023-08-01T07:01:16;97206.31;;;16.11;100.00
20455;BME280;10386;54.314;10.022;2023-08-01T07:03:43;97205.72;;;16.09;100.00
20455;BME280;10386;54.314;10.022;2023-08-01T07:06:10;97210.50;;;16.14;100.00
20455;BME280;10386;54.314;10.022;2023-08-01T07:08:37;97210.50;;;16.14;100.00
20455;BME280;10386;54.314;10.022;2023-08-01T07:11:04;97214.22;;;16.19;100.00
20455;BME280;10386;54.314;10.022;2023-08-01T07:13:30;97211.97;;;16.28;100.00
20455;BME280;10386;54.314;10.022;2023-08-01T07:15:57;97218.97;;;16.24;100.00
20455;BME280;10386;54.314;10.022;2023-08-01T07:18:24;97206.72;;;16.44;100.00
20455;BME280;10386;54.314;10.022;2023-08-01T07:21:04;97199.94;;;16.47;100.00
20455;BME280;10386;54.314;10.022;2023-08-01T07:23:33;97212.38;;;16.61;100.00
20455;BME280;10386;54.314;10.022;2023-08-01T07:26:00;97203.09;;;16.73;100.00
20455;BME280;10386;54.314;10.022;2023-08-01T07:28:26;97193.47;;;16.93;100.00
20455;BME280;10386;54.314;10.022;2023-08-01T07:31:04;97196.81;;;16.95;100.00
20455;BME280;10386;54.314;10.022;2023-08-01T07:33:32;97217.63;;;16.85;100.00
20455;BME280;10386;54.314;10.022;2023-08-01T07:36:00;97226.72;;;16.85;100.00
20455;BME280;10386;54.314;10.022;2023-08-01T07:38:27;97224.06;;;16.79;100.00
20455;BME280;10386;54.314;10.022;2023-08-01T07:40:54;97225.97;;;16.78;100.00
20455;BME280;10386;54.314;10.022;2023-08-01T07:43:21;97230.03;;;16.87;100.00
20455;BME280;10386;54.314;10.022;2023-08-01T07:45:48;97225.66;;;17.21;100.00
20455;BME280;10386;54.314;10.022;2023-08-01T07:48:17;97227.78;;;17.30;100.00
20455;BME280;10386;54.314;10.022;2023-08-01T07:50:44;97221.13;;;17.61;100.00
20455;BME280;10386;54.314;10.022;2023-08-01T07:53:10;97213.00;;;17.89;100.00
20455;BME280;10386;54.314;10.022;2023-08-01T07:55:37;97228.59;;;17.88;100.00
20455;BME280;10386;54.314;10.022;2023-08-01T07:58:04;97247.97;;;17.70;100.00
20455;BME280;10386;54.314;10.022;2023-08-01T08:00:31;97259.88;;;17.76;100.00
20455;BME280;10386;54.314;10.022;2023-08-01T08:02:58;97269.28;;;17.80;100.00
20455;BME280;10386;54.314;10.022;2023-08-01T08:05:25;97285.66;;;17.86;100.00
20455;BME280;10386;54.314;10.022;2023-08-01T08:07:51;97306.28;;;17.89;100.00
20455;BME280;10386;54.314;10.022;2023-08-01T08:10:18;97323.34;;;17.91;100.00
20455;BME280;10386;54.314;10.022;2023-08-01T08:12:45;97310.41;;;18.37;100.00
20455;BME280;10386;54.314;10.022;2023-08-01T08:15:12;97323.59;;;18.51;100.00
20455;BME280;10386;54.314;10.022;2023-08-01T08:17:40;97351.22;;;18.45;100.00
20455;BME280;10386;54.314;10.022;2023-08-01T08:20:07;97380.97;;;18.36;100.00
20455;BME280;10386;54.314;10.022;2023-08-01T08:22:34;97413.19;;;18.18;100.00
20455;BME280;10386;54.314;10.022;2023-08-01T08:25:01;97437.53;;;18.03;100.00
20455;BME280;10386;54.314;10.022;2023-08-01T08:27:27;97455.22;;;18.41;100.00
20455;BME280;10386;54.314;10.022;2023-08-01T08:29:55;97448.91;;;19.15;100.00
20455;BME280;10386;54.314;10.022;2023-08-01T08:32:22;97482.31;;;19.35;100.00
20455;BME280;10386;54.314;10.022;2023-08-01T08:34:49;97509.25;;;19.49;100.00
20455;BME280;10386;54.314;10.022;2023-08-01T08:37:16;97557.19;;;19.64;100.00
20455;BME280;10386;54.314;10.022;2023-08-01T08:39:42;97595.41;;;19.77;100.00
20455;BME280;10386;54.314;10.022;2023-08-01T08:42:10;97667.91;;;19.44;100.00
20455;BME280;10386;54.314;10.022;2023-08-01T08:44:43;97714.44;;;19.45;100.00
20455;BME280;10386;54.314;10.022;2023-08-01T08:47:11;97752.53;;;19.87;100.00
20455;BME280;10386;54.314;10.022;2023-08-01T08:49:39;97800.25;;;20.39;100.00
20455;BME280;10386;54.314;10.022;2023-08-01T08:52:07;97878.41;;;20.84;100.00
20455;BME280;10386;54.314;10.022;2023-08-01T08:54:36;97974.97;;;21.11;100.00
20455;BME280;10386;54.314;10.022;2023-08-01T08:57:06;98094.84;;;19.88;100.00
20455;BME280;10386;54.314;10.022;2023-08-01T08:59:33;98175.47;;;19.23;100.00
20455;BME280;10386;54.314;10.022;2023-08-01T09:02:02;98021.28;;;19.77;100.00
20455;BME280;10386;54.314;10.022;2023-08-01T09:04:32;98047.44;;;20.50;100.00
20455;BME280;10386;54.314;10.022;2023-08-01T09:07:02;98252.44;;;20.67;100.00
20455;BME280;10386;54.314;10.022;2023-08-01T09:09:30;98317.19;;;20.76;100.00
20455;BME280;10386;54.314;10.022;2023-08-01T09:11:58;98400.06;;;20.98;100.00
20455;BME280;10386;54.314;10.022;2023-08-01T09:14:25;98542.47;;;20.82;100.00
20455;BME280;10386;54.314;10.022;2023-08-01T09:16:52;98622.63;;;20.80;100.00
20455;BME280;10386;54.314;10.022;2023-08-01T09:19:21;98857.47;;;20.46;100.00
20455;BME280;10386;54.314;10.022;2023-08-01T09:21:48;98902.56;;;20.08;100.00
20455;BME280;10386;54.314;10.022;2023-08-01T09:24:17;98940.31;;;19.55;100.00
20455;BME280;10386;54.314;10.022;2023-08-01T09:26:47;98967.28;;;19.00;100.00
20455;BME280;10386;54.314;10.022;2023-08-01T09:29:18;98961.78;;;19.07;100.00
20455;BME280;10386;54.314;10.022;2023-08-01T09:31:46;98969.84;;;19.08;100.00
20455;BME280;10386;54.314;10.022;2023-08-01T09:34:24;98976.66;;;18.65;100.00
20455;BME280;10386;54.314;10.022;2023-08-01T09:36:58;98969.16;;;18.40;100.00
20455;BME280;10386;54.314;10.022;2023-08-01T09:39:25;98960.88;;;18.33;100.00
20455;BME280;10386;54.314;10.022;2023-08-01T09:41:59;98961.94;;;18.32;100.00
20455;BME280;10386;54.314;10.022;2023-08-01T09:44:27;98955.28;;;18.20;100.00
20455;BME280;10386;54.314;10.022;2023-08-01T09:47:02;98942.75;;;18.45;100.00
20455;BME280;10386;54.314;10.022;2023-08-01T09:49:29;98950.78;;;19.07;100.00
20455;BME280;10386;54.314;10.022;2023-08-01T09:51:57;98944.97;;;19.61;100.00
20455;BME280;10386;54.314;10.022;2023-08-01T09:54:24;98933.28;;;20.24;100.00
20455;BME280;10386;54.314;10.022;2023-08-01T09:56:53;98932.53;;;20.48;100.00
20455;BME280;10386;54.314;10.022;2023-08-01T09:59:25;98962.09;;;20.22;100.00
20455;BME280;10386;54.314;10.022;2023-08-01T10:01:54;98976.47;;;20.37;100.00
20455;BME280;10386;54.314;10.022;2023-08-01T10:04:29;99008.72;;;19.97;100.00
20455;BME280;10386;54.314;10.022;2023-08-01T10:07:05;99030.91;;;19.44;100.00
20455;BME280;10386;54.314;10.022;2023-08-01T10:09:34;99043.16;;;19.35;100.00
20455;BME280;10386;54.314;10.022;2023-08-01T10:12:05;99108.63;;;18.99;100.00
20455;BME280;10386;54.314;10.022;2023-08-01T10:14:32;99108.22;;;19.02;100.00
20455;BME280;10386;54.314;10.022;2023-08-01T10:17:02;99112.16;;;19.27;100.00
20455;BME280;10386;54.314;10.022;2023-08-01T10:19:31;99112.00;;;19.48;100.00
20455;BME280;10386;54.314;10.022;2023-08-01T10:21:59;99047.28;;;19.84;100.00
20455;BME280;10386;54.314;10.022;2023-08-01T10:24:27;99064.66;;;19.85;100.00
20455;BME280;10386;54.314;10.022;2023-08-01T10:26:54;99075.94;;;20.09;100.00
20455;BME280;10386;54.314;10.022;2023-08-01T10:29:21;99088.22;;;20.33;100.00
20455;BME280;10386;54.314;10.022;2023-08-01T10:31:52;99131.47;;;20.06;100.00
20455;BME280;10386;54.314;10.022;2023-08-01T10:34:20;99149.16;;;19.65;100.00
20455;BME280;10386;54.314;10.022;2023-08-01T10:36:57;99166.13;;;19.28;100.00
20455;BME280;10386;54.314;10.022;2023-08-01T10:39:26;99182.97;;;19.12;100.00
20455;BME280;10386;54.314;10.022;2023-08-01T10:42:03;99186.50;;;19.40;100.00
20455;BME280;10386;54.314;10.022;2023-08-01T10:44:32;99190.72;;;19.36;100.00
20455;BME280;10386;54.314;10.022;2023-08-01T10:47:04;99203.25;;;19.39;100.00
20455;BME280;10386;54.314;10.022;2023-08-01T10:49:39;99227.47;;;19.16;100.00
20455;BME280;10386;54.314;10.022;2023-08-01T10:52:20;99236.84;;;19.28;100.00
20455;BME280;10386;54.314;10.022;2023-08-01T10:54:57;99240.44;;;19.28;100.00
20455;BME280;10386;54.314;10.022;2023-08-01T10:57:30;99233.47;;;19.66;100.00
20455;BME280;10386;54.314;10.022;2023-08-01T10:59:58;99250.03;;;19.85;100.00
20455;BME280;10386;54.314;10.022;2023-08-01T11:02:27;99258.19;;;20.00;100.00
20455;BME280;10386;54.314;10.022;2023-08-01T11:05:04;99284.53;;;20.15;100.00
20455;BME280;10386;54.314;10.022;2023-08-01T11:07:32;99310.72;;;20.52;100.00
20455;BME280;10386;54.314;10.022;2023-08-01T11:12:36;99343.81;;;20.52;100.00
20455;BME280;10386;54.314;10.022;2023-08-01T11:15:06;99380.00;;;19.61;100.00
20455;BME280;10386;54.314;10.022;2023-08-01T11:17:42;99388.78;;;19.02;100.00
20455;BME280;10386;54.314;10.022;2023-08-01T11:20:12;99386.50;;;18.85;100.00
20455;BME280;10386;54.314;10.022;2023-08-01T11:22:59;99386.06;;;18.46;100.00
20455;BME280;10386;54.314;10.022;2023-08-01T11:25:38;99376.41;;;18.50;100.00
20455;BME280;10386;54.314;10.022;2023-08-01T11:28:11;99373.28;;;18.38;100.00
20455;BME280;10386;54.314;10.022;2023-08-01T11:30:38;99366.75;;;18.39;100.00
20455;BME280;10386;54.314;10.022;2023-08-01T11:33:17;99352.94;;;18.33;100.00
20455;BME280;10386;54.314;10.022;2023-08-01T11:35:44;99351.91;;;18.19;100.00
20455;BME280;10386;54.314;10.022;2023-08-01T11:38:11;99342.22;;;18.23;100.00
20455;BME280;10386;54.314;10.022;2023-08-01T11:40:39;99332.94;;;18.24;100.00
20455;BME280;10386;54.314;10.022;2023-08-01T11:43:07;99326.91;;;18.14;100.00
20455;BME280;10386;54.314;10.022;2023-08-01T11:45:35;99312.31;;;18.28;100.00
20455;BME280;10386;54.314;10.022;2023-08-01T11:48:02;99303.47;;;17.98;100.00
20455;BME280;10386;54.314;10.022;2023-08-01T11:50:30;99294.50;;;17.75;100.00
20455;BME280;10386;54.314;10.022;2023-08-01T11:52:57;99296.03;;;17.63;100.00
20455;BME280;10386;54.314;10.022;2023-08-01T11:55:26;99295.00;;;17.35;100.00
20455;BME280;10386;54.314;10.022;2023-08-01T11:57:54;99292.13;;;17.28;100.00
20455;BME280;10386;54.314;10.022;2023-08-01T12:00:25;99284.09;;;17.27;100.00
20455;BME280;10386;54.314;10.022;2023-08-01T12:03:10;99291.53;;;17.18;100.00
20455;BME280;10386;54.314;10.022;2023-08-01T12:05:40;99288.06;;;17.10;100.00
20455;BME280;10386;54.314;10.022;2023-08-01T12:08:12;99268.94;;;17.16;100.00
20455;BME280;10386;54.314;10.022;2023-08-01T12:10:44;99266.75;;;16.97;100.00
20455;BME280;10386;54.314;10.022;2023-08-01T12:13:22;99240.84;;;17.00;100.00
20455;BME280;10386;54.314;10.022;2023-08-01T12:15:50;99230.84;;;17.07;100.00
20455;BME280;10386;54.314;10.022;2023-08-01T12:18:25;99235.56;;;16.98;100.00
20455;BME280;10386;54.314;10.022;2023-08-01T12:20:55;99226.84;;;16.95;100.00
20455;BME280;10386;54.314;10.022;2023-08-01T12:23:22;99217.59;;;16.81;100.00
20455;BME280;10386;54.314;10.022;2023-08-01T12:25:49;99219.56;;;16.59;100.00
20455;BME280;10386;54.314;10.022;2023-08-01T12:28:16;99203.72;;;16.46;100.00
20455;BME280;10386;54.314;10.022;2023-08-01T12:30:43;99186.72;;;16.36;100.00
20455;BME280;10386;54.314;10.022;2023-08-01T12:33:10;99165.94;;;16.42;100.00
20455;BME280;10386;54.314;10.022;2023-08-01T12:35:41;99148.06;;;16.46;100.00
20455;BME280;10386;54.314;10.022;2023-08-01T12:38:09;99135.25;;;16.46;100.00
20455;BME280;10386;54.314;10.022;2023-08-01T12:40:36;99111.34;;;16.55;100.00
20455;BME280;10386;54.314;10.022;2023-08-01T12:43:03;99101.16;;;16.63;100.00
20455;BME280;10386;54.314;10.022;2023-08-01T12:45:29;99087.44;;;16.77;100.00
20455;BME280;10386;54.314;10.022;2023-08-01T12:47:56;99075.78;;;16.90;100.00